Time;durP1;ratioP1;P1;durP2;ratioP2;P2;SDS_P1;SDS_P2;PMS_P1;PMS_P2;Temp;Humidity;BMP_temperature;BMP_pressure;BME280_temperature;BME280_humidity;BME280_pressure;Samples;Min_cycle;Max_cycle;Signal;HPM_P1;HPM_P2
2022/07/10 00:00:28;;;;;;;1.85;0.20;;;15.10;99.90;;;;;;5056911;28;20037;-74
2022/07/10 00:02:54;;;;;;;4.00;0.00;;;15.00;99.90;;;;;;5057169;28;20066;-74
2022/07/10 00:05:21;;;;;;;1.15;0.00;;;15.00;99.90;;;;;;5057482;28;20055;-73
2022/07/10 00:07:48;;;;;;;2.40;0.00;;;14.90;99.90;;;;;;5074811;28;20112;-74
2022/07/10 00:10:14;;;;;;;4.57;0.47;;;14.80;99.90;;;;;;5075718;28;20052;-74
2022/07/10 00:12:40;;;;;;;3.65;0.10;;;14.70;99.90;;;;;;5076619;28;20020;-74
2022/07/10 00:15:06;;;;;;;1.88;0.00;;;14.60;99.90;;;;;;5076260;28;20035;-74
2022/07/10 00:17:33;;;;;;;1.85;0.00;;;14.50;99.90;;;;;;5074787;28;20042;-75
2022/07/10 00:19:59;;;;;;;2.08;0.10;;;14.40;99.90;;;;;;5074758;28;20107;-75
2022/07/10 00:22:25;;;;;;;1.60;0.28;;;14.40;99.90;;;;;;5055734;28;20482;-76
2022/07/10 00:24:51;;;;;;;2.08;0.00;;;14.30;99.90;;;;;;5055991;28;20093;-76
2022/07/10 00:27:18;;;;;;;2.97;0.20;;;14.20;99.90;;;;;;5073284;28;20025;-76
2022/07/10 00:29:44;;;;;;;1.95;0.00;;;14.10;99.90;;;;;;5073055;28;20028;-77
2022/07/10 00:32:10;;;;;;;2.80;0.52;;;14.00;99.90;;;;;;5073355;28;20021;-77
2022/07/10 00:34:35;;;;;;;1.88;0.30;;;13.90;99.90;;;;;;5055358;28;20027;-77
2022/07/10 00:37:02;;;;;;;0.63;0.00;;;13.90;99.90;;;;;;5073571;28;20013;-77
2022/07/10 00:39:28;;;;;;;2.17;0.00;;;13.90;99.90;;;;;;5059282;28;20095;-77
2022/07/10 00:41:53;;;;;;;1.20;0.00;;;13.80;99.90;;;;;;5078398;28;20020;-74
2022/07/10 00:44:19;;;;;;;1.15;0.00;;;13.70;99.90;;;;;;5077849;28;20026;-74
2022/07/10 00:46:45;;;;;;;1.77;0.00;;;13.80;99.90;;;;;;5077168;28;20021;-74
2022/07/10 00:49:10;;;;;;;1.27;0.00;;;13.60;99.90;;;;;;5077293;28;20017;-75
2022/07/10 00:51:37;;;;;;;2.22;0.15;;;13.50;99.90;;;;;;5077212;28;20024;-75
2022/07/10 00:54:03;;;;;;;0.80;0.00;;;13.60;99.90;;;;;;5077075;28;20028;-75
2022/07/10 00:56:28;;;;;;;0.90;0.13;;;13.60;99.90;;;;;;5077216;28;20061;-75
2022/07/10 00:58:54;;;;;;;5.65;1.00;;;13.60;99.90;;;;;;5076866;28;20017;-75
2022/07/10 01:01:22;;;;;;;3.88;0.10;;;13.60;99.90;;;;;;5059005;28;20554;-75
2022/07/10 01:03:48;;;;;;;2.63;0.00;;;13.60;99.90;;;;;;5058736;28;20040;-75
2022/07/10 01:06:14;;;;;;;2.17;0.00;;;13.70;99.90;;;;;;5076826;28;20027;-75
2022/07/10 01:08:40;;;;;;;2.15;0.00;;;13.70;99.90;;;;;;5076665;28;20029;-75
2022/07/10 01:11:07;;;;;;;2.30;0.00;;;13.80;99.90;;;;;;5058770;28;20051;-75
2022/07/10 01:13:33;;;;;;;2.50;0.00;;;13.90;99.90;;;;;;5076913;28;20067;-75
2022/07/10 01:15:58;;;;;;;1.00;0.00;;;13.90;99.90;;;;;;5076864;28;20048;-75
2022/07/10 01:18:25;;;;;;;3.55;0.30;;;14.00;99.90;;;;;;5076692;28;20023;-75
2022/07/10 01:20:55;;;;;;;1.98;0.00;;;14.00;99.90;;;;;;5058628;28;20064;-75
2022/07/10 01:23:21;;;;;;;0.10;0.00;;;14.10;99.90;;;;;;5076987;28;20017;-75
2022/07/10 01:25:48;;;;;;;0.93;0.00;;;14.20;99.90;;;;;;5076695;28;20062;-75
2022/07/10 01:28:14;;;;;;;0.63;0.00;;;14.20;99.90;;;;;;5076335;28;20024;-75
2022/07/10 01:30:39;;;;;;;2.25;0.00;;;14.20;99.90;;;;;;5076325;28;20051;-75
2022/07/10 01:33:05;;;;;;;1.40;0.00;;;14.30;99.90;;;;;;5076876;28;20099;-75
2022/07/10 01:35:30;;;;;;;4.28;0.13;;;14.30;99.90;;;;;;5076440;28;20381;-75
2022/07/10 01:37:56;;;;;;;8.90;0.80;;;14.30;99.90;;;;;;5058135;28;20016;-74
2022/07/10 01:40:21;;;;;;;2.42;0.03;;;14.40;99.90;;;;;;5076099;28;20032;-74
2022/07/10 01:42:47;;;;;;;3.45;0.00;;;14.40;99.90;;;;;;5076059;28;20028;-74
2022/07/10 01:45:12;;;;;;;2.28;0.00;;;14.50;99.90;;;;;;5076749;28;20032;-74
2022/07/10 01:47:38;;;;;;;3.47;0.00;;;14.50;99.90;;;;;;5076133;28;20070;-74
2022/07/10 01:50:05;;;;;;;1.23;0.03;;;14.60;99.90;;;;;;5056830;28;20036;-74
2022/07/10 01:52:30;;;;;;;2.33;0.00;;;14.60;99.90;;;;;;5075977;28;20543;-74
2022/07/10 01:54:56;;;;;;;2.83;0.20;;;14.50;99.90;;;;;;5076158;28;20021;-74
2022/07/10 01:57:22;;;;;;;1.42;0.00;;;14.50;99.90;;;;;;5057958;28;20390;-74
2022/07/10 01:59:47;;;;;;;3.10;0.20;;;14.30;99.90;;;;;;5075808;28;20032;-74
2022/07/10 02:02:13;;;;;;;4.03;0.13;;;14.30;99.90;;;;;;5075817;28;20060;-74
2022/07/10 02:04:41;;;;;;;6.63;0.35;;;14.20;99.90;;;;;;5075792;28;20025;-74
2022/07/10 02:07:18;;;;;;;1.88;0.17;;;14.20;99.90;;;;;;5075791;28;20028;-74
2022/07/10 02:09:44;;;;;;;2.40;0.15;;;14.10;99.90;;;;;;5057628;28;20055;-74
2022/07/10 02:12:12;;;;;;;0.70;0.00;;;14.10;99.90;;;;;;5057714;28;20025;-73
2022/07/10 02:14:39;;;;;;;5.45;0.70;;;14.10;99.90;;;;;;5075569;28;20048;-74
2022/07/10 02:17:06;;;;;;;2.75;0.22;;;14.10;99.90;;;;;;5057614;28;20069;-73
2022/07/10 02:19:32;;;;;;;2.35;0.22;;;14.10;99.90;;;;;;5075454;28;20392;-74
2022/07/10 02:21:58;;;;;;;3.50;0.25;;;14.10;99.90;;;;;;5075410;28;20107;-74
2022/07/10 02:24:24;;;;;;;2.15;0.00;;;14.00;99.90;;;;;;5075680;28;20101;-74
2022/07/10 02:26:49;;;;;;;0.98;0.00;;;13.90;99.90;;;;;;5075284;28;20067;-74
2022/07/10 02:29:15;;;;;;;2.72;0.00;;;13.90;99.90;;;;;;5075312;28;20029;-74
2022/07/10 02:31:41;;;;;;;3.30;0.00;;;13.80;99.90;;;;;;5057349;28;20020;-74
2022/07/10 02:34:08;;;;;;;2.65;0.10;;;13.80;99.90;;;;;;5075324;28;20465;-74
2022/07/10 02:36:34;;;;;;;2.50;0.08;;;13.70;99.90;;;;;;5057308;28;20103;-74
2022/07/10 02:39:00;;;;;;;4.85;0.55;;;13.70;99.90;;;;;;5057140;28;20027;-74
2022/07/10 02:41:26;;;;;;;3.63;0.10;;;14.20;99.90;;;;;;5075102;28;20086;-74
2022/07/10 02:43:52;;;;;;;1.27;0.28;;;13.70;99.90;;;;;;5057134;28;20028;-74
2022/07/10 02:46:17;;;;;;;3.05;0.00;;;13.70;99.90;;;;;;5057110;28;20477;-74
2022/07/10 02:48:43;;;;;;;0.57;0.00;;;13.70;99.90;;;;;;5074819;28;20028;-74
2022/07/10 02:51:08;;;;;;;3.85;0.08;;;13.60;99.90;;;;;;5074794;28;20025;-74
2022/07/10 02:53:34;;;;;;;6.88;0.10;;;13.60;99.90;;;;;;5074776;28;20032;-74
2022/07/10 02:55:59;;;;;;;4.25;0.35;;;13.60;99.90;;;;;;5056837;28;20174;-74
2022/07/10 02:58:25;;;;;;;2.35;0.10;;;13.60;99.90;;;;;;5074787;28;20032;-74
2022/07/10 03:00:51;;;;;;;2.58;0.35;;;13.60;99.90;;;;;;5074615;28;20020;-73
2022/07/10 03:03:17;;;;;;;3.63;0.60;;;13.70;99.90;;;;;;5074657;28;20036;-73
2022/07/10 03:05:44;;;;;;;1.40;0.10;;;13.70;99.90;;;;;;5056783;28;20035;-73
2022/07/10 03:08:10;;;;;;;1.55;0.00;;;13.80;99.90;;;;;;5074465;28;20029;-73
2022/07/10 03:10:36;;;;;;;4.18;0.00;;;13.80;99.90;;;;;;5074657;28;20389;-73
2022/07/10 03:13:02;;;;;;;1.95;0.25;;;13.80;99.90;;;;;;5074557;28;20067;-73
2022/07/10 03:15:27;;;;;;;3.67;0.15;;;13.90;99.90;;;;;;5056454;28;20469;-73
2022/07/10 03:17:53;;;;;;;0.80;0.30;;;14.00;99.90;;;;;;5074236;28;20036;-73
2022/07/10 03:20:19;;;;;;;4.28;0.63;;;14.00;99.90;;;;;;5074497;28;20118;-74
2022/07/10 03:22:44;;;;;;;2.88;0.00;;;14.00;99.90;;;;;;5074496;28;20115;-74
2022/07/10 03:25:10;;;;;;;4.05;0.17;;;14.10;99.90;;;;;;5074203;28;20024;-74
2022/07/10 03:27:35;;;;;;;3.97;0.52;;;14.10;99.90;;;;;;5056340;28;20158;-73
2022/07/10 03:30:01;;;;;;;3.05;0.22;;;14.10;99.90;;;;;;5073905;28;20153;-73
2022/07/10 03:32:27;;;;;;;3.58;0.20;;;14.10;99.90;;;;;;5074056;28;20078;-73
2022/07/10 03:34:52;;;;;;;1.17;0.00;;;14.10;99.90;;;;;;5073925;28;20052;-73
2022/07/10 03:37:18;;;;;;;3.20;0.22;;;14.10;99.90;;;;;;5073906;28;20016;-74
2022/07/10 03:39:44;;;;;;;3.40;0.10;;;14.20;99.90;;;;;;5073759;28;20482;-74
2022/07/10 03:42:09;;;;;;;1.30;0.15;;;14.20;99.90;;;;;;5073862;28;20056;-74
2022/07/10 03:44:35;;;;;;;3.00;0.35;;;14.20;99.90;;;;;;5074081;28;20111;-74
2022/07/10 03:47:01;;;;;;;2.83;0.10;;;14.30;99.90;;;;;;5074066;28;20032;-74
2022/07/10 03:49:26;;;;;;;1.02;0.00;;;14.30;99.90;;;;;;5073627;28;20024;-74
2022/07/10 03:51:52;;;;;;;1.38;0.22;;;14.30;99.90;;;;;;5055778;28;20039;-74
2022/07/10 03:54:17;;;;;;;1.70;0.00;;;14.30;99.90;;;;;;5055771;28;20028;-73
2022/07/10 03:59:27;;;;;;;4.05;0.13;;;14.40;99.90;;;;;;5074359;28;20104;-73
2022/07/10 04:01:53;;;;;;;3.33;0.10;;;14.40;99.90;;;;;;5073365;28;20048;-73
2022/07/10 04:04:19;;;;;;;0.93;0.00;;;14.40;99.90;;;;;;5055649;28;20078;-73
2022/07/10 04:06:44;;;;;;;3.67;0.00;;;14.50;99.90;;;;;;5073509;28;20107;-73
2022/07/10 04:09:10;;;;;;;2.00;0.00;;;14.50;99.90;;;;;;5073647;28;20091;-73
2022/07/10 04:11:35;;;;;;;4.60;0.43;;;14.50;99.90;;;;;;5073297;28;20016;-73
2022/07/10 04:14:01;;;;;;;2.38;0.20;;;14.50;99.90;;;;;;5073187;28;20020;-74
2022/07/10 04:16:26;;;;;;;9.68;0.50;;;14.60;99.90;;;;;;5073335;28;20028;-73
2022/07/10 04:18:52;;;;;;;2.17;0.00;;;14.60;99.90;;;;;;5055378;28;20040;-74
2022/07/10 04:21:18;;;;;;;4.40;0.00;;;14.70;99.90;;;;;;5073404;28;20029;-74
2022/07/10 04:23:44;;;;;;;1.35;0.00;;;14.70;99.90;;;;;;5080144;28;20061;-75
2022/07/10 04:26:09;;;;;;;1.98;0.00;;;14.70;99.90;;;;;;5093542;28;20036;-75
2022/07/10 04:28:35;;;;;;;3.58;0.00;;;14.80;99.90;;;;;;5093783;28;20016;-75
2022/07/10 04:31:01;;;;;;;2.90;0.00;;;14.90;99.90;;;;;;5093455;28;20027;-74
2022/07/10 04:33:26;;;;;;;0.82;0.17;;;14.90;99.90;;;;;;5093184;28;20455;-74
2022/07/10 04:35:52;;;;;;;2.13;0.10;;;15.00;99.90;;;;;;5093453;28;20488;-74
2022/07/10 04:38:17;;;;;;;0.80;0.15;;;15.00;99.90;;;;;;5093545;28;20036;-74
2022/07/10 04:40:43;;;;;;;2.22;0.25;;;15.10;99.90;;;;;;5093379;28;20027;-74
2022/07/10 04:43:10;;;;;;;1.73;0.00;;;15.20;99.90;;;;;;5093179;28;20082;-75
2022/07/10 04:45:37;;;;;;;2.03;0.00;;;15.20;99.90;;;;;;5093240;28;20032;-74
2022/07/10 04:48:06;;;;;;;0.70;0.00;;;15.30;99.90;;;;;;5093515;28;20474;-74
2022/07/10 04:50:31;;;;;;;0.30;0.00;;;15.30;99.90;;;;;;5093245;28;20035;-74
2022/07/10 04:52:57;;;;;;;3.70;0.13;;;15.30;99.90;;;;;;5093546;28;20020;-74
2022/07/10 04:55:23;;;;;;;4.25;0.47;;;15.40;99.90;;;;;;5074920;28;20567;-76
2022/07/10 04:57:48;;;;;;;1.17;0.20;;;15.50;99.90;;;;;;5075162;28;20028;-76
2022/07/10 05:00:14;;;;;;;4.95;0.00;;;15.50;99.90;;;;;;5093111;28;20035;-77
2022/07/10 05:02:40;;;;;;;3.55;0.10;;;15.60;99.90;;;;;;5093268;28;20028;-77
2022/07/10 05:05:06;;;;;;;3.30;0.20;;;15.60;99.90;;;;;;5092933;28;20060;-77
2022/07/10 05:07:32;;;;;;;6.43;0.32;;;15.70;99.90;;;;;;5093125;28;20077;-77
2022/07/10 05:09:57;;;;;;;2.47;0.30;;;15.80;99.90;;;;;;5093212;28;20036;-77
2022/07/10 05:12:23;;;;;;;2.17;0.32;;;15.80;99.90;;;;;;5074896;28;20439;-77
2022/07/10 05:14:52;;;;;;;5.72;0.10;;;16.20;99.90;;;;;;5074756;28;20028;-77
2022/07/10 05:17:19;;;;;;;3.30;0.00;;;15.80;99.90;;;;;;5093128;28;20047;-77
2022/07/10 05:19:45;;;;;;;2.08;0.00;;;15.80;99.90;;;;;;5092879;28;20477;-77
2022/07/10 05:22:11;;;;;;;4.70;0.28;;;15.80;99.90;;;;;;5093050;28;20020;-77
2022/07/10 05:24:37;;;;;;;1.58;0.10;;;15.80;99.90;;;;;;5095513;28;20440;-77
2022/07/10 05:27:04;;;;;;;4.00;0.43;;;15.80;99.90;;;;;;5078515;28;20028;-77
2022/07/10 05:29:30;;;;;;;0.98;0.00;;;15.70;99.90;;;;;;5096548;28;20028;-77
2022/07/10 05:31:55;;;;;;;0.98;0.00;;;15.80;99.90;;;;;;5096938;28;20018;-77
2022/07/10 05:34:21;;;;;;;5.03;0.20;;;15.80;99.90;;;;;;5078470;28;20008;-77
2022/07/10 05:36:46;;;;;;;1.85;0.00;;;15.80;99.90;;;;;;5097100;28;20074;-77
2022/07/10 05:39:12;;;;;;;2.00;0.20;;;15.80;99.90;;;;;;5096572;28;20534;-77
2022/07/10 05:41:37;;;;;;;2.03;0.00;;;15.80;99.90;;;;;;5096647;28;20020;-77
2022/07/10 05:44:03;;;;;;;1.40;0.20;;;15.80;99.90;;;;;;5078047;28;20028;-77
2022/07/10 05:46:29;;;;;;;2.20;0.28;;;15.80;99.90;;;;;;5096442;28;20462;-77
2022/07/10 05:48:54;;;;;;;2.28;0.20;;;15.90;99.90;;;;;;5078222;28;20031;-77
2022/07/10 05:51:20;;;;;;;3.17;0.10;;;15.90;99.90;;;;;;5096642;28;20028;-77
2022/07/10 05:53:46;;;;;;;4.13;0.10;;;15.80;99.90;;;;;;5096167;28;20021;-76
2022/07/10 05:56:11;;;;;;;0.63;0.00;;;15.90;99.90;;;;;;5096212;28;20385;-77
2022/07/10 05:58:37;;;;;;;2.97;0.00;;;15.90;99.90;;;;;;5096275;28;20027;-76
2022/07/10 06:01:03;;;;;;;4.72;0.05;;;15.90;99.90;;;;;;5096557;28;20059;-75
2022/07/10 06:03:28;;;;;;;3.83;0.03;;;15.90;99.90;;;;;;5095631;28;20118;-76
2022/07/10 06:05:54;;;;;;;1.60;0.32;;;16.00;99.90;;;;;;5096095;28;20099;-76
2022/07/10 06:08:20;;;;;;;2.80;0.22;;;16.10;99.90;;;;;;5077880;28;20028;-76
2022/07/10 06:10:45;;;;;;;2.40;0.20;;;16.20;99.90;;;;;;5077746;28;20025;-76
2022/07/10 06:13:11;;;;;;;4.72;0.00;;;16.20;99.90;;;;;;5095785;28;20066;-76
2022/07/10 06:15:37;;;;;;;3.58;0.10;;;16.30;99.90;;;;;;5095777;28;20094;-75
2022/07/10 06:18:03;;;;;;;5.72;0.38;;;16.30;99.90;;;;;;5095838;28;20465;-75
2022/07/10 06:20:29;;;;;;;0.65;0.00;;;16.30;99.90;;;;;;5096193;28;20039;-76
2022/07/10 06:22:54;;;;;;;3.38;0.52;;;16.30;99.90;;;;;;5097287;28;20027;-74
2022/07/10 06:25:20;;;;;;;5.82;0.10;;;16.30;99.90;;;;;;5077504;28;20030;-74
2022/07/10 06:27:46;;;;;;;3.92;0.05;;;16.40;99.90;;;;;;5077567;28;20059;-74
2022/07/10 06:30:11;;;;;;;4.45;0.57;;;16.40;99.90;;;;;;5095427;28;20032;-74
2022/07/10 06:32:38;;;;;;;1.92;0.10;;;16.40;99.90;;;;;;5095999;28;20035;-74
2022/07/10 06:35:05;;;;;;;2.13;0.00;;;16.50;99.90;;;;;;5095626;28;20016;-74
2022/07/10 06:37:31;;;;;;;1.27;0.22;;;16.50;99.90;;;;;;5078172;28;20047;-74
2022/07/10 06:39:57;;;;;;;4.40;0.28;;;16.50;99.90;;;;;;5095896;28;20060;-74
2022/07/10 06:42:22;;;;;;;1.38;0.00;;;16.50;99.90;;;;;;5078294;28;20024;-74
2022/07/10 06:44:48;;;;;;;4.18;0.30;;;16.50;99.90;;;;;;5078959;28;20067;-74
2022/07/10 06:50:03;;;;;;;1.52;0.10;;;16.60;99.90;;;;;;5096873;28;20054;-74
2022/07/10 06:52:32;;;;;;;2.85;0.00;;;16.70;99.90;;;;;;5096856;28;20388;-74
2022/07/10 06:54:58;;;;;;;3.00;0.32;;;16.70;99.90;;;;;;5078264;28;20115;-74
2022/07/10 06:57:24;;;;;;;5.70;0.03;;;16.80;99.90;;;;;;5096331;28;20028;-75
2022/07/10 06:59:51;;;;;;;4.63;0.22;;;16.90;99.90;;;;;;5096516;28;20118;-75
2022/07/10 07:02:16;;;;;;;2.17;0.00;;;17.00;99.90;;;;;;5082088;23;20028;-75
2022/07/10 07:04:44;;;;;;;2.88;0.00;;;17.10;99.90;;;;;;5056688;28;20033;-75
2022/07/10 07:07:10;;;;;;;7.90;0.53;;;17.10;99.90;;;;;;5074535;28;20016;-75
2022/07/10 07:09:35;;;;;;;2.30;0.00;;;17.10;99.90;;;;;;5070600;28;20074;-75
2022/07/10 07:12:01;;;;;;;2.50;0.00;;;17.10;99.90;;;;;;5076628;28;20434;-75
2022/07/10 07:14:26;;;;;;;1.33;0.10;;;17.20;99.90;;;;;;5095030;28;20457;-74
2022/07/10 07:17:02;;;;;;;3.60;0.22;;;17.30;99.90;;;;;;5094658;28;20354;-74
2022/07/10 07:24:55;;;;;;;4.68;0.05;;;17.50;99.90;;;;;;5095161;28;20065;-74
2022/07/10 07:27:21;;;;;;;2.17;0.00;;;17.60;99.90;;;;;;5094410;28;20031;-74
2022/07/10 07:29:46;;;;;;;2.90;0.00;;;17.70;99.90;;;;;;5094335;28;20050;-74
2022/07/10 07:32:12;;;;;;;1.90;0.32;;;17.80;99.90;;;;;;5094349;28;20013;-74
2022/07/10 07:34:37;;;;;;;3.30;0.40;;;18.00;99.90;;;;;;5094849;28;20024;-75
2022/07/10 07:37:03;;;;;;;5.03;0.20;;;18.10;99.90;;;;;;5094730;28;20024;-75
2022/07/10 07:39:29;;;;;;;1.45;0.00;;;18.20;99.90;;;;;;5093699;28;20034;-75
2022/07/10 07:41:54;;;;;;;1.27;0.08;;;18.40;99.90;;;;;;5075922;28;20049;-75
2022/07/10 07:44:20;;;;;;;1.85;0.20;;;18.50;99.90;;;;;;5094101;28;20380;-75
2022/07/10 07:46:45;;;;;;;1.13;0.32;;;18.50;99.90;;;;;;5093694;28;20473;-75
2022/07/10 07:49:11;;;;;;;2.33;0.03;;;18.60;99.90;;;;;;5093854;28;20008;-74
2022/07/10 07:51:36;;;;;;;3.58;0.10;;;18.50;99.90;;;;;;5075604;28;20393;-74
2022/07/10 07:54:02;;;;;;;4.13;0.57;;;18.50;99.90;;;;;;5094253;28;20020;-75
2022/07/10 07:56:28;;;;;;;0.50;0.03;;;18.50;99.90;;;;;;5093969;28;20538;-75
2022/07/10 07:58:53;;;;;;;4.53;0.25;;;18.60;99.90;;;;;;5093858;28;20035;-75
2022/07/10 08:01:19;;;;;;;3.92;0.20;;;18.60;99.90;;;;;;5075839;28;20024;-75
2022/07/10 08:03:45;;;;;;;2.60;0.40;;;18.70;99.90;;;;;;5093626;28;20059;-76
2022/07/10 08:06:11;;;;;;;7.22;0.03;;;18.70;99.90;;;;;;5075635;28;20020;-76
2022/07/10 08:08:36;;;;;;;6.25;0.35;;;18.90;99.90;;;;;;5093794;28;20388;-76
2022/07/10 08:11:02;;;;;;;4.43;0.00;;;18.90;99.90;;;;;;5075612;28;20024;-76
2022/07/10 08:13:28;;;;;;;0.98;0.00;;;19.00;99.90;;;;;;5093704;28;20381;-75
2022/07/10 08:15:54;;;;;;;1.98;0.20;;;19.00;99.90;;;;;;5093352;28;20031;-75
2022/07/10 08:18:20;;;;;;;2.17;0.00;;;19.00;99.90;;;;;;5093415;28;20028;-75
2022/07/10 08:20:45;;;;;;;1.50;0.20;;;19.00;99.90;;;;;;5075282;28;20084;-76
2022/07/10 08:23:11;;;;;;;1.92;0.00;;;20.70;99.90;;;;;;5093800;28;20020;-76
2022/07/10 08:25:36;;;;;;;1.02;0.30;;;19.20;99.90;;;;;;5093425;28;20024;-75
2022/07/10 08:28:05;;;;;;;1.98;0.30;;;19.30;99.90;;;;;;5075293;28;20020;-76
2022/07/10 08:30:31;;;;;;;;;;;19.50;99.90;;;;;;5093756;28;20027;-75
2022/07/10 08:32:56;;;;;;;0.52;0.10;;;19.70;99.90;;;;;;5093367;28;19908;-76
2022/07/10 08:35:22;;;;;;;5.57;0.00;;;19.90;99.90;;;;;;5075122;28;20042;-75
2022/07/10 08:37:47;;;;;;;0.45;0.00;;;20.00;99.90;;;;;;5075307;28;20111;-76
2022/07/10 08:40:14;;;;;;;1.23;0.00;;;20.30;99.90;;;;;;5075147;28;20115;-76
2022/07/10 08:42:41;;;;;;;2.35;0.00;;;20.50;99.90;;;;;;5093314;28;20392;-76
2022/07/10 08:45:07;;;;;;;1.27;0.00;;;20.60;99.90;;;;;;5093376;28;20103;-76
2022/07/10 08:47:38;;;;;;;2.63;0.10;;;20.80;99.90;;;;;;5074389;28;20052;-76
2022/07/10 08:50:04;;;;;;;1.05;0.00;;;21.00;99.90;;;;;;5093219;28;20079;-76
2022/07/10 08:53:20;;;;;;;3.83;0.10;;;21.10;99.90;;;;;;5075080;28;20016;-76
2022/07/10 08:55:46;;;;;;;3.90;0.00;;;21.30;99.90;;;;;;5007374;28;20391;-76
2022/07/10 08:58:13;;;;;;;1.60;0.20;;;21.40;99.90;;;;;;4991892;28;20018;-76
2022/07/10 09:00:38;;;;;;;0.50;0.00;;;21.40;99.90;;;;;;5040679;28;20459;-76
2022/07/10 09:03:04;;;;;;;2.75;0.00;;;21.40;99.90;;;;;;5078906;28;20032;-75
2022/07/10 09:05:29;;;;;;;1.80;0.00;;;21.30;99.90;;;;;;5096990;28;20032;-75
2022/07/10 09:07:55;;;;;;;2.05;0.00;;;21.30;99.90;;;;;;5097007;28;20024;-75
2022/07/10 09:10:24;;;;;;;0.70;0.00;;;21.30;99.90;;;;;;5097056;28;20030;-75
2022/07/10 09:12:50;;;;;;;2.67;0.10;;;21.40;99.90;;;;;;5097316;28;20419;-75
2022/07/10 09:15:20;;;;;;;1.85;0.00;;;21.30;99.90;;;;;;5096913;28;20024;-75
2022/07/10 09:17:56;;;;;;;2.30;0.20;;;21.40;99.90;;;;;;5097129;28;20464;-75
2022/07/10 09:20:33;;;;;;;3.45;0.00;;;21.50;99.90;;;;;;5096250;28;20020;-76
2022/07/10 09:23:09;;;;;;;3.47;0.28;;;21.70;99.90;;;;;;5097311;28;20115;-75
2022/07/10 09:25:35;;;;;;;1.17;0.00;;;21.90;99.90;;;;;;5078783;28;20016;-74
2022/07/10 09:28:05;;;;;;;5.25;0.60;;;22.10;99.90;;;;;;5097144;28;20384;-75
2022/07/10 09:30:41;;;;;;;2.92;0.30;;;22.20;99.90;;;;;;5096952;28;20373;-74
2022/07/10 09:33:29;;;;;;;2.63;0.00;;;22.20;99.90;;;;;;5096908;28;20080;-74
2022/07/10 09:38:44;;;;;;;1.20;0.00;;;22.60;99.90;;;;;;5097175;28;20028;-74
2022/07/10 09:41:15;;;;;;;1.65;0.00;;;22.70;99.90;;;;;;5077817;28;20626;-74
2022/07/10 09:43:45;;;;;;;1.08;0.00;;;22.70;99.90;;;;;;5077799;28;20023;-74
2022/07/10 09:46:11;;;;;;;1.35;0.10;;;22.70;99.90;;;;;;5077021;28;20024;-75
2022/07/10 09:48:37;;;;;;;2.13;0.00;;;22.60;99.90;;;;;;5096225;28;20074;-74
2022/07/10 09:51:06;;;;;;;1.52;0.00;;;22.60;99.90;;;;;;5078250;28;20036;-74
2022/07/10 09:53:33;;;;;;;3.05;0.65;;;22.60;99.90;;;;;;5096179;28;20095;-74
2022/07/10 09:56:00;;;;;;;2.45;0.20;;;22.50;99.90;;;;;;5096341;28;20058;-74
2022/07/10 09:58:30;;;;;;;3.30;0.10;;;22.50;99.90;;;;;;5096008;28;20024;-74
2022/07/10 10:00:58;;;;;;;6.97;0.40;;;22.60;99.90;;;;;;5077993;28;20627;-75
2022/07/10 10:03:25;;;;;;;2.42;0.10;;;22.50;99.90;;;;;;5095847;28;20107;-75
2022/07/10 10:05:58;;;;;;;1.55;0.35;;;22.60;99.90;;;;;;5077821;28;20032;-75
2022/07/10 10:08:29;;;;;;;0.65;0.20;;;22.50;99.90;;;;;;5095723;28;20020;-75
2022/07/10 10:10:57;;;;;;;0.98;0.00;;;22.60;99.90;;;;;;5094682;28;20032;-74
2022/07/10 10:13:27;;;;;;;4.07;0.10;;;22.60;99.90;;;;;;5096009;28;20021;-75
2022/07/10 10:15:54;;;;;;;2.50;0.00;;;22.70;99.90;;;;;;5095811;28;20099;-74
2022/07/10 10:18:22;;;;;;;2.58;0.10;;;22.70;99.90;;;;;;5095614;28;20154;-74
2022/07/10 10:20:48;;;;;;;0.20;0.00;;;22.90;99.90;;;;;;5096067;28;20031;-74
2022/07/10 10:23:22;;;;;;;2.33;0.05;;;23.10;99.90;;;;;;5095692;28;20073;-74
2022/07/10 10:25:53;;;;;;;0.63;0.00;;;23.20;99.90;;;;;;5095725;28;20032;-74
2022/07/10 10:28:23;;;;;;;0.43;0.00;;;23.20;98.60;;;;;;5095528;28;20149;-73
2022/07/10 10:30:52;;;;;;;1.52;0.00;;;23.10;98.90;;;;;;5077565;28;20118;-74
2022/07/10 10:33:37;;;;;;;1.17;0.20;;;23.10;99.90;;;;;;5095217;28;20091;-74
2022/07/10 10:36:03;;;;;;;0.85;0.15;;;23.10;98.50;;;;;;5076930;28;20051;-74
2022/07/10 10:38:56;;;;;;;0.50;0.00;;;23.10;98.50;;;;;;5095221;28;20095;-74
2022/07/10 10:41:39;;;;;;;2.63;0.40;;;22.90;98.30;;;;;;5097504;28;20426;-74
2022/07/10 10:44:16;;;;;;;2.70;0.22;;;22.90;99.50;;;;;;5096081;28;20478;-74
2022/07/10 10:46:53;;;;;;;0.57;0.00;;;22.90;99.40;;;;;;5095760;28;20517;-74
2022/07/10 10:49:23;;;;;;;0.80;0.08;;;23.00;99.70;;;;;;5095237;28;20436;-74
2022/07/10 10:52:06;;;;;;;1.30;0.00;;;23.00;97.60;;;;;;5094521;28;20036;-75
2022/07/10 10:54:57;;;;;;;0.85;0.00;;;23.00;98.60;;;;;;5076580;28;20490;-75
2022/07/10 10:57:40;;;;;;;1.30;0.00;;;23.00;99.50;;;;;;5094984;28;20020;-75
2022/07/10 11:00:07;;;;;;;0.98;0.00;;;23.10;99.10;;;;;;5076722;28;20027;-74
2022/07/10 11:02:39;;;;;;;5.55;0.00;;;23.30;98.10;;;;;;5094817;28;20063;-74
2022/07/10 11:07:59;;;;;;;1.08;0.38;;;23.50;97.00;;;;;;5094611;28;20500;-73
2022/07/10 11:10:30;;;;;;;0.65;0.00;;;23.30;97.50;;;;;;5076381;28;20020;-73
2022/07/10 11:13:12;;;;;;;1.75;0.00;;;23.40;96.30;;;;;;5094977;28;20022;-72
2022/07/10 11:15:43;;;;;;;0.50;0.00;;;23.60;97.90;;;;;;5095223;28;20052;-72
2022/07/10 11:18:18;;;;;;;0.28;0.00;;;23.90;95.70;;;;;;5077038;28;20052;-73
2022/07/10 11:20:53;;;;;;;0.47;0.00;;;24.00;95.00;;;;;;5094684;28;20472;-75
2022/07/10 11:23:47;;;;;;;2.25;0.30;;;23.90;93.80;;;;;;5094599;28;20020;-76
2022/07/10 11:26:28;;;;;;;1.40;0.00;;;23.80;94.20;;;;;;5094491;28;20107;-76
2022/07/10 11:28:55;;;;;;;0.70;0.00;;;23.80;95.10;;;;;;5094801;28;20477;-75
2022/07/10 11:31:25;;;;;;;0.20;0.20;;;23.80;94.90;;;;;;5094287;28;20099;-75
2022/07/10 11:33:55;;;;;;;1.00;0.00;;;23.70;94.60;;;;;;5094331;28;20043;-76
2022/07/10 11:36:28;;;;;;;1.00;0.20;;;23.60;94.40;;;;;;5094283;28;20023;-76
2022/07/10 11:39:04;;;;;;;0.90;0.00;;;23.60;94.80;;;;;;5094357;28;20077;-76
2022/07/10 11:41:31;;;;;;;1.17;0.00;;;23.50;94.80;;;;;;5094189;28;20024;-76
2022/07/10 11:44:02;;;;;;;1.05;0.00;;;23.30;95.20;;;;;;5094215;28;20027;-76
2022/07/10 11:46:34;;;;;;;0.90;0.00;;;23.30;96.00;;;;;;5094440;28;20028;-76
2022/07/10 11:49:05;;;;;;;1.60;0.25;;;23.10;95.00;;;;;;5093995;28;20028;-76
2022/07/10 11:51:33;;;;;;;1.65;0.00;;;23.20;94.10;;;;;;5094602;28;20103;-76
2022/07/10 11:54:04;;;;;;;4.10;0.30;;;23.40;93.60;;;;;;5093726;28;20476;-76
2022/07/10 11:56:35;;;;;;;1.30;0.00;;;23.60;94.20;;;;;;5094070;28;20091;-76
2022/07/10 11:59:04;;;;;;;1.52;0.00;;;23.80;94.00;;;;;;5094105;28;20069;-76
2022/07/10 12:01:34;;;;;;;2.17;0.00;;;24.10;94.00;;;;;;5093815;28;20070;-76
2022/07/10 12:04:02;;;;;;;1.65;0.13;;;24.20;91.30;;;;;;5093829;28;20028;-75
2022/07/10 12:06:38;;;;;;;0.47;0.00;;;24.40;91.70;;;;;;5094458;28;20069;-75
2022/07/10 12:09:23;;;;;;;1.55;0.40;;;24.60;88.30;;;;;;5094106;28;20074;-75
2022/07/10 12:12:04;;;;;;;0.00;0.00;;;24.80;90.50;;;;;;5094308;28;20104;-76
2022/07/10 12:14:30;;;;;;;1.08;0.00;;;25.00;87.20;;;;;;5076551;28;20050;-76
2022/07/10 12:16:57;;;;;;;1.92;0.00;;;25.20;89.80;;;;;;5075676;28;20024;-76
2022/07/10 12:19:25;;;;;;;1.55;0.00;;;25.20;88.60;;;;;;5075277;28;20024;-76
2022/07/10 12:21:52;;;;;;;0.20;0.00;;;25.20;86.50;;;;;;5093379;28;20027;-77
2022/07/10 12:24:19;;;;;;;0.25;0.00;;;25.20;85.70;;;;;;5093681;28;20503;-77
2022/07/10 12:26:46;;;;;;;0.43;0.00;;;25.20;85.10;;;;;;5093678;28;20024;-77
2022/07/10 12:29:30;;;;;;;0.70;0.28;;;25.40;85.30;;;;;;5075387;28;20503;-76
2022/07/10 12:32:03;;;;;;;0.55;0.00;;;25.40;85.70;;;;;;5093219;28;20028;-77
2022/07/10 12:34:39;;;;;;;1.60;0.00;;;25.60;86.80;;;;;;5092780;28;20073;-76
2022/07/10 12:37:16;;;;;;;2.72;0.10;;;25.80;84.30;;;;;;5094009;28;20031;-76
2022/07/10 12:39:53;;;;;;;0.00;0.00;;;25.80;80.60;;;;;;5075352;28;20028;-76
2022/07/10 12:42:29;;;;;;;0.52;0.03;;;25.80;79.10;;;;;;5093805;28;20012;-76
2022/07/10 12:45:15;;;;;;;0.20;0.00;;;25.80;75.50;;;;;;5093310;28;20020;-76
2022/07/10 12:47:48;;;;;;;1.58;0.00;;;25.70;81.10;;;;;;5073515;28;20078;-76
2022/07/10 12:50:17;;;;;;;1.27;0.00;;;26.10;83.20;;;;;;5073022;28;20029;-76
2022/07/10 12:52:43;;;;;;;1.10;0.00;;;26.60;81.10;;;;;;5055204;28;20485;-76
2022/07/10 12:55:15;;;;;;;0.50;0.00;;;26.90;76.00;;;;;;5055369;28;20025;-76
2022/07/10 12:57:58;;;;;;;0.50;0.00;;;26.80;76.50;;;;;;5055077;28;20397;-78
2022/07/10 13:00:35;;;;;;;0.00;0.00;;;26.70;75.00;;;;;;5068579;28;20024;-77
2022/07/10 13:03:08;;;;;;;0.30;0.00;;;26.80;76.20;;;;;;5093168;28;20066;-78
2022/07/10 13:05:42;;;;;;;0.50;0.00;;;26.80;79.50;;;;;;5093800;28;20027;-77
2022/07/10 13:08:21;;;;;;;0.95;0.10;;;26.80;78.80;;;;;;5093191;28;20158;-77